sensor_id;sensor_type;location;lat;lon;timestamp;P1;durP1;ratioP1;P2;durP2;ratioP2
1214;SDS011;597;51.998;5.880;2022-07-04T00:02:05;6.03;;;5.30;;
1214;SDS011;597;51.998;5.880;2022-07-04T00:04:30;9.70;;;6.20;;
1214;SDS011;597;51.998;5.880;2022-07-04T00:06:56;5.43;;;4.90;;
1214;SDS011;597;51.998;5.880;2022-07-04T00:09:21;9.43;;;4.70;;
1214;SDS011;597;51.998;5.880;2022-07-04T00:11:46;9.63;;;5.67;;
1214;SDS011;597;51.998;5.880;2022-07-04T00:14:12;9.87;;;5.33;;
1214;SDS011;597;51.998;5.880;2022-07-04T00:16:37;6.87;;;5.20;;
1214;SDS011;597;51.998;5.880;2022-07-04T00:19:02;13.70;;;5.37;;
1214;SDS011;597;51.998;5.880;2022-07-04T00:21:27;7.23;;;5.30;;
1214;SDS011;597;51.998;5.880;2022-07-04T00:23:52;7.47;;;4.50;;
1214;SDS011;597;51.998;5.880;2022-07-04T00:26:18;9.43;;;5.17;;
1214;SDS011;597;51.998;5.880;2022-07-04T00:28:43;10.63;;;4.63;;
1214;SDS011;597;51.998;5.880;2022-07-04T00:31:08;5.80;;;4.17;;
1214;SDS011;597;51.998;5.880;2022-07-04T00:33:34;9.67;;;4.17;;
1214;SDS011;597;51.998;5.880;2022-07-04T00:35:59;8.17;;;4.40;;
1214;SDS011;597;51.998;5.880;2022-07-04T00:38:24;4.67;;;3.80;;
1214;SDS011;597;51.998;5.880;2022-07-04T00:40:50;10.93;;;5.10;;
1214;SDS011;597;51.998;5.880;2022-07-04T00:43:25;6.00;;;4.20;;
1214;SDS011;597;51.998;5.880;2022-07-04T00:45:50;10.73;;;4.50;;
1214;SDS011;597;51.998;5.880;2022-07-04T00:48:15;8.67;;;5.13;;
1214;SDS011;597;51.998;5.880;2022-07-04T00:50:41;12.43;;;4.50;;
1214;SDS011;597;51.998;5.880;2022-07-04T00:53:07;8.70;;;4.77;;
1214;SDS011;597;51.998;5.880;2022-07-04T00:55:32;11.30;;;4.70;;
1214;SDS011;597;51.998;5.880;2022-07-04T00:57:58;9.00;;;5.00;;
1214;SDS011;597;51.998;5.880;2022-07-04T01:00:23;8.60;;;4.50;;
1214;SDS011;597;51.998;5.880;2022-07-04T01:02:49;12.33;;;5.20;;
1214;SDS011;597;51.998;5.880;2022-07-04T01:05:14;6.87;;;4.07;;
1214;SDS011;597;51.998;5.880;2022-07-04T01:07:39;7.90;;;4.53;;
1214;SDS011;597;51.998;5.880;2022-07-04T01:10:05;11.17;;;5.33;;
1214;SDS011;597;51.998;5.880;2022-07-04T01:12:30;8.60;;;4.87;;
1214;SDS011;597;51.998;5.880;2022-07-04T01:14:56;11.20;;;5.07;;
1214;SDS011;597;51.998;5.880;2022-07-04T01:17:21;8.07;;;4.37;;
1214;SDS011;597;51.998;5.880;2022-07-04T01:19:47;7.70;;;5.20;;
1214;SDS011;597;51.998;5.880;2022-07-04T01:22:12;6.93;;;4.40;;
1214;SDS011;597;51.998;5.880;2022-07-04T01:24:37;10.37;;;5.43;;
1214;SDS011;597;51.998;5.880;2022-07-04T01:27:02;10.83;;;6.23;;
1214;SDS011;597;51.998;5.880;2022-07-04T01:29:28;6.70;;;4.67;;
1214;SDS011;597;51.998;5.880;2022-07-04T01:31:53;11.30;;;5.47;;
1214;SDS011;597;51.998;5.880;2022-07-04T01:34:19;11.33;;;4.73;;
1214;SDS011;597;51.998;5.880;2022-07-04T01:36:44;7.33;;;4.97;;
1214;SDS011;597;51.998;5.880;2022-07-04T01:39:09;9.73;;;5.23;;
1214;SDS011;597;51.998;5.880;2022-07-04T01:41:35;14.43;;;5.90;;
1214;SDS011;597;51.998;5.880;2022-07-04T01:44:00;8.10;;;5.73;;
1214;SDS011;597;51.998;5.880;2022-07-04T01:46:26;15.50;;;4.60;;
1214;SDS011;597;51.998;5.880;2022-07-04T01:48:51;11.30;;;5.23;;
1214;SDS011;597;51.998;5.880;2022-07-04T01:51:16;8.63;;;5.80;;
1214;SDS011;597;51.998;5.880;2022-07-04T01:53:41;10.53;;;5.17;;
1214;SDS011;597;51.998;5.880;2022-07-04T01:56:07;8.57;;;5.37;;
1214;SDS011;597;51.998;5.880;2022-07-04T01:58:32;8.70;;;6.33;;
1214;SDS011;597;51.998;5.880;2022-07-04T02:00:57;8.07;;;5.20;;
1214;SDS011;597;51.998;5.880;2022-07-04T02:03:41;17.53;;;6.17;;
1214;SDS011;597;51.998;5.880;2022-07-04T02:06:07;8.60;;;5.33;;
1214;SDS011;597;51.998;5.880;2022-07-04T02:08:33;11.73;;;6.00;;
1214;SDS011;597;51.998;5.880;2022-07-04T02:11:17;11.57;;;6.47;;
1214;SDS011;597;51.998;5.880;2022-07-04T02:13:42;10.53;;;6.60;;
1214;SDS011;597;51.998;5.880;2022-07-04T02:16:07;11.23;;;7.50;;
1214;SDS011;597;51.998;5.880;2022-07-04T02:18:33;16.03;;;7.70;;
1214;SDS011;597;51.998;5.880;2022-07-04T02:20:58;13.90;;;8.00;;
1214;SDS011;597;51.998;5.880;2022-07-04T02:23:24;17.57;;;9.80;;
1214;SDS011;597;51.998;5.880;2022-07-04T02:25:49;12.83;;;8.33;;
1214;SDS011;597;51.998;5.880;2022-07-04T02:28:14;12.50;;;9.37;;
1214;SDS011;597;51.998;5.880;2022-07-04T02:30:40;12.70;;;9.73;;
1214;SDS011;597;51.998;5.880;2022-07-04T02:33:05;17.13;;;10.23;;
1214;SDS011;597;51.998;5.880;2022-07-04T02:35:30;10.23;;;8.80;;
1214;SDS011;597;51.998;5.880;2022-07-04T02:37:55;16.37;;;9.57;;
1214;SDS011;597;51.998;5.880;2022-07-04T02:40:20;11.70;;;8.97;;
1214;SDS011;597;51.998;5.880;2022-07-04T02:42:46;15.93;;;8.30;;
1214;SDS011;597;51.998;5.880;2022-07-04T02:45:11;13.97;;;8.30;;
1214;SDS011;597;51.998;5.880;2022-07-04T02:47:37;14.50;;;11.20;;
1214;SDS011;597;51.998;5.880;2022-07-04T02:50:03;18.50;;;10.97;;
1214;SDS011;597;51.998;5.880;2022-07-04T02:52:28;13.47;;;10.20;;
1214;SDS011;597;51.998;5.880;2022-07-04T02:54:54;14.97;;;11.97;;
1214;SDS011;597;51.998;5.880;2022-07-04T02:57:19;11.43;;;9.80;;
1214;SDS011;597;51.998;5.880;2022-07-04T02:59:44;16.70;;;11.10;;
1214;SDS011;597;51.998;5.880;2022-07-04T03:02:10;20.63;;;13.17;;
1214;SDS011;597;51.998;5.880;2022-07-04T03:04:35;19.53;;;12.60;;
1214;SDS011;597;51.998;5.880;2022-07-04T03:07:00;21.03;;;13.63;;
1214;SDS011;597;51.998;5.880;2022-07-04T03:09:26;27.77;;;16.47;;
1214;SDS011;597;51.998;5.880;2022-07-04T03:11:54;20.83;;;15.13;;
1214;SDS011;597;51.998;5.880;2022-07-04T03:14:19;26.37;;;18.20;;
1214;SDS011;597;51.998;5.880;2022-07-04T03:16:45;25.83;;;19.60;;
1214;SDS011;597;51.998;5.880;2022-07-04T03:19:10;31.67;;;20.97;;
1214;SDS011;597;51.998;5.880;2022-07-04T03:21:35;29.40;;;20.17;;
1214;SDS011;597;51.998;5.880;2022-07-04T03:24:00;31.63;;;19.83;;
1214;SDS011;597;51.998;5.880;2022-07-04T03:26:26;31.70;;;20.73;;
1214;SDS011;597;51.998;5.880;2022-07-04T03:28:52;33.20;;;20.67;;
1214;SDS011;597;51.998;5.880;2022-07-04T03:31:17;31.90;;;19.57;;
1214;SDS011;597;51.998;5.880;2022-07-04T03:33:43;31.37;;;19.90;;
1214;SDS011;597;51.998;5.880;2022-07-04T03:36:08;26.07;;;19.63;;
1214;SDS011;597;51.998;5.880;2022-07-04T03:38:33;27.63;;;21.80;;
1214;SDS011;597;51.998;5.880;2022-07-04T03:40:58;29.47;;;20.43;;
1214;SDS011;597;51.998;5.880;2022-07-04T03:43:23;28.60;;;19.60;;
1214;SDS011;597;51.998;5.880;2022-07-04T03:45:49;35.53;;;20.33;;
1214;SDS011;597;51.998;5.880;2022-07-04T03:48:14;29.47;;;20.10;;
1214;SDS011;597;51.998;5.880;2022-07-04T03:50:39;28.33;;;19.63;;
1214;SDS011;597;51.998;5.880;2022-07-04T03:53:05;30.43;;;20.50;;
1214;SDS011;597;51.998;5.880;2022-07-04T03:55:31;26.73;;;19.10;;
1214;SDS011;597;51.998;5.880;2022-07-04T03:57:56;27.87;;;19.80;;
1214;SDS011;597;51.998;5.880;2022-07-04T04:00:21;25.73;;;18.47;;
1214;SDS011;597;51.998;5.880;2022-07-04T04:02:47;27.27;;;19.87;;
1214;SDS011;597;51.998;5.880;2022-07-04T04:05:12;26.57;;;17.77;;
1214;SDS011;597;51.998;5.880;2022-07-04T04:08:01;27.57;;;18.93;;
1214;SDS011;597;51.998;5.880;2022-07-04T04:10:27;25.67;;;19.30;;
1214;SDS011;597;51.998;5.880;2022-07-04T04:12:53;27.33;;;19.10;;
1214;SDS011;597;51.998;5.880;2022-07-04T04:15:18;25.50;;;18.17;;
1214;SDS011;597;51.998;5.880;2022-07-04T04:17:43;23.33;;;18.13;;
1214;SDS011;597;51.998;5.880;2022-07-04T04:20:09;26.47;;;18.43;;
1214;SDS011;597;51.998;5.880;2022-07-04T04:22:34;26.17;;;17.00;;
1214;SDS011;597;51.998;5.880;2022-07-04T04:24:59;22.57;;;16.67;;
1214;SDS011;597;51.998;5.880;2022-07-04T04:27:25;20.47;;;14.60;;
1214;SDS011;597;51.998;5.880;2022-07-04T04:29:50;26.43;;;15.87;;
1214;SDS011;597;51.998;5.880;2022-07-04T04:32:15;19.57;;;15.20;;
1214;SDS011;597;51.998;5.880;2022-07-04T04:34:40;20.70;;;14.43;;
1214;SDS011;597;51.998;5.880;2022-07-04T04:37:06;21.97;;;14.33;;
1214;SDS011;597;51.998;5.880;2022-07-04T04:39:31;19.03;;;13.03;;
1214;SDS011;597;51.998;5.880;2022-07-04T04:41:56;20.53;;;13.20;;
1214;SDS011;597;51.998;5.880;2022-07-04T04:44:21;15.07;;;11.93;;
1214;SDS011;597;51.998;5.880;2022-07-04T04:46:47;12.90;;;11.23;;
1214;SDS011;597;51.998;5.880;2022-07-04T04:49:12;13.70;;;11.67;;
1214;SDS011;597;51.998;5.880;2022-07-04T04:51:37;16.57;;;12.77;;
1214;SDS011;597;51.998;5.880;2022-07-04T04:54:04;16.93;;;11.43;;
1214;SDS011;597;51.998;5.880;2022-07-04T04:56:29;21.37;;;11.87;;
1214;SDS011;597;51.998;5.880;2022-07-04T04:58:54;15.40;;;11.67;;
1214;SDS011;597;51.998;5.880;2022-07-04T05:01:19;18.50;;;11.17;;
1214;SDS011;597;51.998;5.880;2022-07-04T05:03:45;14.20;;;11.90;;
1214;SDS011;597;51.998;5.880;2022-07-04T05:06:11;12.17;;;10.77;;
1214;SDS011;597;51.998;5.880;2022-07-04T05:08:36;17.90;;;12.43;;
1214;SDS011;597;51.998;5.880;2022-07-04T05:11:01;19.50;;;11.20;;
1214;SDS011;597;51.998;5.880;2022-07-04T05:13:26;20.37;;;11.50;;
1214;SDS011;597;51.998;5.880;2022-07-04T05:15:51;19.73;;;11.17;;
1214;SDS011;597;51.998;5.880;2022-07-04T05:18:17;15.07;;;10.70;;
1214;SDS011;597;51.998;5.880;2022-07-04T05:20:42;13.30;;;11.40;;
1214;SDS011;597;51.998;5.880;2022-07-04T05:23:07;15.87;;;12.37;;
1214;SDS011;597;51.998;5.880;2022-07-04T05:25:33;14.83;;;9.60;;
1214;SDS011;597;51.998;5.880;2022-07-04T05:27:58;15.07;;;10.70;;
1214;SDS011;597;51.998;5.880;2022-07-04T05:30:23;14.33;;;9.87;;
1214;SDS011;597;51.998;5.880;2022-07-04T05:32:49;11.50;;;10.27;;
1214;SDS011;597;51.998;5.880;2022-07-04T05:35:14;19.27;;;11.53;;
1214;SDS011;597;51.998;5.880;2022-07-04T05:37:39;22.97;;;9.83;;
1214;SDS011;597;51.998;5.880;2022-07-04T05:40:05;12.90;;;9.53;;
1214;SDS011;597;51.998;5.880;2022-07-04T05:42:30;15.10;;;10.73;;
1214;SDS011;597;51.998;5.880;2022-07-04T05:44:55;15.50;;;10.40;;
1214;SDS011;597;51.998;5.880;2022-07-04T05:47:21;17.63;;;11.10;;
1214;SDS011;597;51.998;5.880;2022-07-04T05:49:49;13.37;;;9.57;;
1214;SDS011;597;51.998;5.880;2022-07-04T05:52:14;16.40;;;9.60;;
1214;SDS011;597;51.998;5.880;2022-07-04T05:54:39;13.63;;;9.97;;
1214;SDS011;597;51.998;5.880;2022-07-04T05:57:04;26.33;;;11.97;;
1214;SDS011;597;51.998;5.880;2022-07-04T05:59:30;12.30;;;10.70;;
1214;SDS011;597;51.998;5.880;2022-07-04T06:01:55;17.90;;;10.60;;
1214;SDS011;597;51.998;5.880;2022-07-04T06:04:21;13.67;;;10.37;;
1214;SDS011;597;51.998;5.880;2022-07-04T06:06:46;17.93;;;11.00;;
1214;SDS011;597;51.998;5.880;2022-07-04T06:09:11;14.30;;;10.03;;
1214;SDS011;597;51.998;5.880;2022-07-04T06:11:37;14.53;;;9.70;;
1214;SDS011;597;51.998;5.880;2022-07-04T06:14:02;14.27;;;10.43;;
1214;SDS011;597;51.998;5.880;2022-07-04T06:16:27;23.83;;;10.20;;
1214;SDS011;597;51.998;5.880;2022-07-04T06:18:52;10.83;;;9.23;;
1214;SDS011;597;51.998;5.880;2022-07-04T06:21:18;14.77;;;10.50;;
1214;SDS011;597;51.998;5.880;2022-07-04T06:23:43;15.10;;;9.70;;
1214;SDS011;597;51.998;5.880;2022-07-04T06:26:08;13.57;;;8.97;;
1214;SDS011;597;51.998;5.880;2022-07-04T06:28:34;10.60;;;8.63;;
1214;SDS011;597;51.998;5.880;2022-07-04T06:30:59;12.20;;;8.93;;
1214;SDS011;597;51.998;5.880;2022-07-04T06:33:25;15.77;;;10.03;;
1214;SDS011;597;51.998;5.880;2022-07-04T06:35:50;11.63;;;9.57;;
1214;SDS011;597;51.998;5.880;2022-07-04T06:38:25;20.13;;;8.90;;
1214;SDS011;597;51.998;5.880;2022-07-04T06:40:53;15.53;;;9.17;;
1214;SDS011;597;51.998;5.880;2022-07-04T06:43:18;18.73;;;9.40;;
1214;SDS011;597;51.998;5.880;2022-07-04T06:45:43;12.13;;;8.80;;
1214;SDS011;597;51.998;5.880;2022-07-04T06:48:09;13.80;;;8.70;;
1214;SDS011;597;51.998;5.880;2022-07-04T06:50:34;21.17;;;9.20;;
1214;SDS011;597;51.998;5.880;2022-07-04T06:53:00;16.87;;;9.20;;
1214;SDS011;597;51.998;5.880;2022-07-04T06:55:25;14.87;;;9.33;;
1214;SDS011;597;51.998;5.880;2022-07-04T06:57:50;12.10;;;9.40;;
1214;SDS011;597;51.998;5.880;2022-07-04T07:00:16;11.70;;;9.40;;
1214;SDS011;597;51.998;5.880;2022-07-04T07:02:41;16.10;;;9.63;;
1214;SDS011;597;51.998;5.880;2022-07-04T07:05:06;13.00;;;9.57;;
1214;SDS011;597;51.998;5.880;2022-07-04T07:07:32;13.00;;;8.93;;
1214;SDS011;597;51.998;5.880;2022-07-04T07:09:57;14.90;;;9.00;;
1214;SDS011;597;51.998;5.880;2022-07-04T07:12:22;13.73;;;8.47;;
1214;SDS011;597;51.998;5.880;2022-07-04T07:14:48;14.20;;;9.53;;
1214;SDS011;597;51.998;5.880;2022-07-04T07:17:14;9.20;;;7.70;;
1214;SDS011;597;51.998;5.880;2022-07-04T07:19:40;12.23;;;9.47;;
1214;SDS011;597;51.998;5.880;2022-07-04T07:22:06;14.50;;;9.87;;
1214;SDS011;597;51.998;5.880;2022-07-04T07:24:31;16.63;;;9.07;;
1214;SDS011;597;51.998;5.880;2022-07-04T07:26:56;18.07;;;10.27;;
1214;SDS011;597;51.998;5.880;2022-07-04T07:29:22;14.23;;;10.20;;
1214;SDS011;597;51.998;5.880;2022-07-04T07:31:47;15.93;;;8.90;;
1214;SDS011;597;51.998;5.880;2022-07-04T07:34:12;15.80;;;9.17;;
1214;SDS011;597;51.998;5.880;2022-07-04T07:36:37;21.07;;;9.37;;
1214;SDS011;597;51.998;5.880;2022-07-04T07:39:03;15.50;;;9.03;;
1214;SDS011;597;51.998;5.880;2022-07-04T07:41:28;14.47;;;9.43;;
1214;SDS011;597;51.998;5.880;2022-07-04T07:43:53;16.57;;;10.63;;
1214;SDS011;597;51.998;5.880;2022-07-04T07:46:18;12.17;;;9.90;;
1214;SDS011;597;51.998;5.880;2022-07-04T07:48:43;16.87;;;10.53;;
1214;SDS011;597;51.998;5.880;2022-07-04T07:51:12;13.33;;;10.47;;
1214;SDS011;597;51.998;5.880;2022-07-04T07:53:40;12.13;;;9.90;;
1214;SDS011;597;51.998;5.880;2022-07-04T07:56:05;16.87;;;12.33;;
1214;SDS011;597;51.998;5.880;2022-07-04T07:58:30;15.43;;;10.40;;
1214;SDS011;597;51.998;5.880;2022-07-04T08:00:55;18.77;;;12.60;;
1214;SDS011;597;51.998;5.880;2022-07-04T08:03:20;16.60;;;10.33;;
1214;SDS011;597;51.998;5.880;2022-07-04T08:06:04;15.37;;;10.10;;
1214;SDS011;597;51.998;5.880;2022-07-04T08:08:29;18.20;;;10.50;;
1214;SDS011;597;51.998;5.880;2022-07-04T08:10:55;14.47;;;10.83;;
1214;SDS011;597;51.998;5.880;2022-07-04T08:13:20;23.17;;;12.10;;
1214;SDS011;597;51.998;5.880;2022-07-04T08:15:45;22.67;;;12.90;;
1214;SDS011;597;51.998;5.880;2022-07-04T08:18:11;15.70;;;12.07;;
1214;SDS011;597;51.998;5.880;2022-07-04T08:20:36;20.80;;;14.90;;
1214;SDS011;597;51.998;5.880;2022-07-04T08:23:01;16.23;;;11.70;;
1214;SDS011;597;51.998;5.880;2022-07-04T08:25:27;21.30;;;16.60;;
1214;SDS011;597;51.998;5.880;2022-07-04T08:27:52;23.67;;;16.33;;
1214;SDS011;597;51.998;5.880;2022-07-04T08:30:17;17.40;;;14.77;;
1214;SDS011;597;51.998;5.880;2022-07-04T08:32:42;17.40;;;15.37;;
1214;SDS011;597;51.998;5.880;2022-07-04T08:35:08;19.40;;;13.60;;
1214;SDS011;597;51.998;5.880;2022-07-04T08:37:33;20.03;;;13.30;;
1214;SDS011;597;51.998;5.880;2022-07-04T08:39:59;14.93;;;13.37;;
1214;SDS011;597;51.998;5.880;2022-07-04T08:42:24;26.27;;;14.67;;
1214;SDS011;597;51.998;5.880;2022-07-04T08:44:50;18.30;;;13.13;;
1214;SDS011;597;51.998;5.880;2022-07-04T08:47:19;18.47;;;13.60;;
1214;SDS011;597;51.998;5.880;2022-07-04T08:49:46;24.03;;;14.40;;
1214;SDS011;597;51.998;5.880;2022-07-04T08:52:15;14.67;;;11.07;;
1214;SDS011;597;51.998;5.880;2022-07-04T08:54:43;17.07;;;12.60;;
1214;SDS011;597;51.998;5.880;2022-07-04T08:57:27;15.70;;;10.60;;
1214;SDS011;597;51.998;5.880;2022-07-04T09:00:11;22.27;;;12.33;;
1214;SDS011;597;51.998;5.880;2022-07-04T09:02:37;15.73;;;10.40;;
1214;SDS011;597;51.998;5.880;2022-07-04T09:05:03;17.93;;;10.80;;
1214;SDS011;597;51.998;5.880;2022-07-04T09:07:30;15.20;;;10.13;;
1214;SDS011;597;51.998;5.880;2022-07-04T09:09:56;13.80;;;9.20;;
1214;SDS011;597;51.998;5.880;2022-07-04T09:12:21;17.50;;;10.50;;
1214;SDS011;597;51.998;5.880;2022-07-04T09:14:46;16.80;;;11.20;;
1214;SDS011;597;51.998;5.880;2022-07-04T09:17:11;17.43;;;9.40;;
1214;SDS011;597;51.998;5.880;2022-07-04T09:19:37;11.90;;;9.73;;
1214;SDS011;597;51.998;5.880;2022-07-04T09:22:03;18.60;;;11.70;;
1214;SDS011;597;51.998;5.880;2022-07-04T09:27:10;14.97;;;13.37;;
1214;SDS011;597;51.998;5.880;2022-07-04T09:29:56;15.60;;;14.00;;
1214;SDS011;597;51.998;5.880;2022-07-04T09:34:58;20.10;;;15.20;;
1214;SDS011;597;51.998;5.880;2022-07-04T09:37:32;18.13;;;14.20;;
1214;SDS011;597;51.998;5.880;2022-07-04T09:39:57;14.10;;;12.60;;
1214;SDS011;597;51.998;5.880;2022-07-04T09:42:23;16.30;;;13.87;;
1214;SDS011;597;51.998;5.880;2022-07-04T09:44:48;15.13;;;10.67;;
1214;SDS011;597;51.998;5.880;2022-07-04T09:47:23;9.27;;;7.40;;
1214;SDS011;597;51.998;5.880;2022-07-04T09:52:24;13.90;;;7.37;;
1214;SDS011;597;51.998;5.880;2022-07-04T09:54:49;12.90;;;5.77;;
1214;SDS011;597;51.998;5.880;2022-07-04T09:57:14;11.50;;;5.47;;
1214;SDS011;597;51.998;5.880;2022-07-04T09:59:46;13.83;;;5.47;;
1214;SDS011;597;51.998;5.880;2022-07-04T10:02:12;9.70;;;5.03;;
1214;SDS011;597;51.998;5.880;2022-07-04T10:07:06;7.70;;;4.10;;
1214;SDS011;597;51.998;5.880;2022-07-04T10:09:32;8.73;;;3.30;;
1214;SDS011;597;51.998;5.880;2022-07-04T10:11:57;6.70;;;3.10;;
1214;SDS011;597;51.998;5.880;2022-07-04T10:14:22;9.93;;;3.13;;
1214;SDS011;597;51.998;5.880;2022-07-04T10:16:48;5.10;;;3.10;;
1214;SDS011;597;51.998;5.880;2022-07-04T10:19:13;2.73;;;2.30;;
1214;SDS011;597;51.998;5.880;2022-07-04T10:21:39;6.90;;;2.83;;
1214;SDS011;597;51.998;5.880;2022-07-04T10:24:05;5.57;;;2.50;;
1214;SDS011;597;51.998;5.880;2022-07-04T10:26:30;5.93;;;2.80;;
1214;SDS011;597;51.998;5.880;2022-07-04T10:28:56;8.30;;;3.63;;
1214;SDS011;597;51.998;5.880;2022-07-04T10:31:22;5.30;;;3.13;;
1214;SDS011;597;51.998;5.880;2022-07-04T10:33:48;4.93;;;3.63;;
1214;SDS011;597;51.998;5.880;2022-07-04T10:36:21;13.37;;;3.67;;
1214;SDS011;597;51.998;5.880;2022-07-04T10:41:11;4.50;;;2.67;;
1214;SDS011;597;51.998;5.880;2022-07-04T10:43:37;6.60;;;3.40;;
1214;SDS011;597;51.998;5.880;2022-07-04T10:51:14;7.03;;;4.43;;
1214;SDS011;597;51.998;5.880;2022-07-04T10:53:59;5.83;;;3.83;;
1214;SDS011;597;51.998;5.880;2022-07-04T10:58:50;5.13;;;3.60;;
1214;SDS011;597;51.998;5.880;2022-07-04T11:01:16;7.30;;;3.97;;
1214;SDS011;597;51.998;5.880;2022-07-04T11:03:44;5.93;;;3.20;;
1214;SDS011;597;51.998;5.880;2022-07-04T11:11:56;7.07;;;3.73;;
1214;SDS011;597;51.998;5.880;2022-07-04T11:17:20;3.57;;;3.00;;
1214;SDS011;597;51.998;5.880;2022-07-04T11:19:45;4.97;;;3.03;;
1214;SDS011;597;51.998;5.880;2022-07-04T11:22:11;7.30;;;2.87;;
1214;SDS011;597;51.998;5.880;2022-07-04T11:24:37;4.00;;;2.73;;
1214;SDS011;597;51.998;5.880;2022-07-04T11:27:03;3.30;;;3.00;;
1214;SDS011;597;51.998;5.880;2022-07-04T11:29:29;6.10;;;2.60;;
1214;SDS011;597;51.998;5.880;2022-07-04T11:31:55;4.50;;;3.30;;
1214;SDS011;597;51.998;5.880;2022-07-04T11:34:21;8.70;;;3.67;;
1214;SDS011;597;51.998;5.880;2022-07-04T11:36:47;7.20;;;3.57;;
1214;SDS011;597;51.998;5.880;2022-07-04T11:39:14;7.90;;;3.40;;
1214;SDS011;597;51.998;5.880;2022-07-04T11:41:44;5.37;;;3.40;;
1214;SDS011;597;51.998;5.880;2022-07-04T11:44:29;5.80;;;3.07;;
1214;SDS011;597;51.998;5.880;2022-07-04T11:49:58;4.47;;;2.83;;
1214;SDS011;597;51.998;5.880;2022-07-04T11:52:57;6.20;;;3.63;;
1214;SDS011;597;51.998;5.880;2022-07-04T11:55:21;4.70;;;3.10;;
1214;SDS011;597;51.998;5.880;2022-07-04T11:57:49;4.80;;;3.53;;
1214;SDS011;597;51.998;5.880;2022-07-04T12:00:18;4.40;;;2.87;;
1214;SDS011;597;51.998;5.880;2022-07-04T12:02:44;6.70;;;3.40;;
1214;SDS011;597;51.998;5.880;2022-07-04T12:05:11;6.20;;;3.07;;
1214;SDS011;597;51.998;5.880;2022-07-04T12:07:37;6.00;;;2.83;;
1214;SDS011;597;51.998;5.880;2022-07-04T12:10:07;8.63;;;3.87;;
1214;SDS011;597;51.998;5.880;2022-07-04T12:12:33;5.17;;;2.80;;
1214;SDS011;597;51.998;5.880;2022-07-04T12:14:59;4.80;;;2.20;;
1214;SDS011;597;51.998;5.880;2022-07-04T12:17:29;4.57;;;3.37;;
1214;SDS011;597;51.998;5.880;2022-07-04T12:19:55;5.07;;;3.30;;
1214;SDS011;597;51.998;5.880;2022-07-04T12:22:34;4.67;;;2.80;;
1214;SDS011;597;51.998;5.880;2022-07-04T12:25:01;4.60;;;3.20;;
1214;SDS011;597;51.998;5.880;2022-07-04T12:27:26;6.07;;;2.93;;
1214;SDS011;597;51.998;5.880;2022-07-04T12:29:52;3.50;;;2.67;;
1214;SDS011;597;51.998;5.880;2022-07-04T12:32:18;8.10;;;3.50;;
1214;SDS011;597;51.998;5.880;2022-07-04T12:34:44;5.03;;;2.43;;
1214;SDS011;597;51.998;5.880;2022-07-04T12:37:10;3.70;;;3.27;;
1214;SDS011;597;51.998;5.880;2022-07-04T12:39:36;5.77;;;2.30;;
1214;SDS011;597;51.998;5.880;2022-07-04T12:42:05;3.47;;;2.43;;
1214;SDS011;597;51.998;5.880;2022-07-04T12:44:31;3.23;;;2.60;;
1214;SDS011;597;51.998;5.880;2022-07-04T12:46:56;4.03;;;2.10;;
1214;SDS011;597;51.998;5.880;2022-07-04T12:49:22;2.43;;;2.23;;
1214;SDS011;597;51.998;5.880;2022-07-04T12:51:47;4.13;;;2.50;;
1214;SDS011;597;51.998;5.880;2022-07-04T12:54:12;3.07;;;2.07;;
1214;SDS011;597;51.998;5.880;2022-07-04T12:56:38;3.60;;;2.20;;
1214;SDS011;597;51.998;5.880;2022-07-04T12:59:05;4.70;;;3.20;;
1214;SDS011;597;51.998;5.880;2022-07-04T13:01:31;6.33;;;2.20;;
1214;SDS011;597;51.998;5.880;2022-07-04T13:03:57;4.30;;;2.97;;
1214;SDS011;597;51.998;5.880;2022-07-04T13:06:22;3.47;;;3.00;;
1214;SDS011;597;51.998;5.880;2022-07-04T13:08:48;4.83;;;2.60;;
1214;SDS011;597;51.998;5.880;2022-07-04T13:11:13;3.07;;;2.43;;
1214;SDS011;597;51.998;5.880;2022-07-04T13:13:57;3.30;;;2.60;;
1214;SDS011;597;51.998;5.880;2022-07-04T13:16:22;6.03;;;2.83;;
1214;SDS011;597;51.998;5.880;2022-07-04T13:18:48;3.33;;;2.67;;
1214;SDS011;597;51.998;5.880;2022-07-04T13:21:13;5.07;;;2.13;;
1214;SDS011;597;51.998;5.880;2022-07-04T13:23:38;7.03;;;2.90;;
1214;SDS011;597;51.998;5.880;2022-07-04T13:26:04;4.00;;;2.93;;
1214;SDS011;597;51.998;5.880;2022-07-04T13:28:29;5.80;;;2.33;;
1214;SDS011;597;51.998;5.880;2022-07-04T13:30:54;3.40;;;2.03;;
1214;SDS011;597;51.998;5.880;2022-07-04T13:33:19;2.70;;;2.40;;
1214;SDS011;597;51.998;5.880;2022-07-04T13:35:44;4.13;;;2.27;;
1214;SDS011;597;51.998;5.880;2022-07-04T13:38:10;5.53;;;2.10;;
1214;SDS011;597;51.998;5.880;2022-07-04T13:40:35;2.60;;;2.30;;
1214;SDS011;597;51.998;5.880;2022-07-04T13:43:00;2.37;;;2.00;;
1214;SDS011;597;51.998;5.880;2022-07-04T13:45:26;2.60;;;2.03;;
1214;SDS011;597;51.998;5.880;2022-07-04T13:47:52;7.53;;;2.90;;
1214;SDS011;597;51.998;5.880;2022-07-04T13:50:17;3.33;;;2.30;;
1214;SDS011;597;51.998;5.880;2022-07-04T13:52:43;2.83;;;2.00;;
1214;SDS011;597;51.998;5.880;2022-07-04T13:55:08;5.03;;;2.70;;
1214;SDS011;597;51.998;5.880;2022-07-04T13:57:33;2.13;;;1.93;;
1214;SDS011;597;51.998;5.880;2022-07-04T13:59:59;3.33;;;1.90;;
1214;SDS011;597;51.998;5.880;2022-07-04T14:02:24;7.10;;;2.33;;
1214;SDS011;597;51.998;5.880;2022-07-04T14:04:49;4.17;;;2.83;;
1214;SDS011;597;51.998;5.880;2022-07-04T14:07:14;4.83;;;3.13;;
1214;SDS011;597;51.998;5.880;2022-07-04T14:09:40;3.30;;;2.50;;
1214;SDS011;597;51.998;5.880;2022-07-04T14:12:05;3.63;;;2.00;;
1214;SDS011;597;51.998;5.880;2022-07-04T14:14:31;2.63;;;1.70;;
1214;SDS011;597;51.998;5.880;2022-07-04T14:16:56;9.60;;;2.23;;
1214;SDS011;597;51.998;5.880;2022-07-04T14:19:21;5.53;;;2.00;;
1214;SDS011;597;51.998;5.880;2022-07-04T14:21:47;5.10;;;2.57;;
1214;SDS011;597;51.998;5.880;2022-07-04T14:24:13;4.20;;;2.20;;
1214;SDS011;597;51.998;5.880;2022-07-04T14:26:38;3.00;;;2.50;;
1214;SDS011;597;51.998;5.880;2022-07-04T14:29:04;3.80;;;2.47;;
1214;SDS011;597;51.998;5.880;2022-07-04T14:31:29;2.67;;;2.03;;
1214;SDS011;597;51.998;5.880;2022-07-04T14:33:54;3.00;;;1.73;;
1214;SDS011;597;51.998;5.880;2022-07-04T14:36:21;3.00;;;2.13;;
1214;SDS011;597;51.998;5.880;2022-07-04T14:38:46;2.17;;;1.80;;
1214;SDS011;597;51.998;5.880;2022-07-04T14:41:11;3.43;;;1.67;;
1214;SDS011;597;51.998;5.880;2022-07-04T14:43:40;4.97;;;2.20;;
1214;SDS011;597;51.998;5.880;2022-07-04T14:46:05;5.17;;;2.00;;
1214;SDS011;597;51.998;5.880;2022-07-04T14:48:30;4.40;;;2.53;;
1214;SDS011;597;51.998;5.880;2022-07-04T14:50:55;3.90;;;2.20;;
1214;SDS011;597;51.998;5.880;2022-07-04T14:53:21;6.33;;;2.00;;
1214;SDS011;597;51.998;5.880;2022-07-04T14:55:46;3.20;;;2.03;;
1214;SDS011;597;51.998;5.880;2022-07-04T14:58:11;2.60;;;2.00;;
1214;SDS011;597;51.998;5.880;2022-07-04T15:00:38;3.10;;;2.13;;
1214;SDS011;597;51.998;5.880;2022-07-04T15:03:03;2.40;;;2.03;;
1214;SDS011;597;51.998;5.880;2022-07-04T15:05:28;2.57;;;2.33;;
1214;SDS011;597;51.998;5.880;2022-07-04T15:07:54;3.00;;;2.17;;
1214;SDS011;597;51.998;5.880;2022-07-04T15:10:20;2.63;;;1.90;;
1214;SDS011;597;51.998;5.880;2022-07-04T15:12:45;4.93;;;1.80;;
1214;SDS011;597;51.998;5.880;2022-07-04T15:15:11;3.27;;;2.00;;
1214;SDS011;597;51.998;5.880;2022-07-04T15:17:37;2.80;;;1.87;;
1214;SDS011;597;51.998;5.880;2022-07-04T15:20:02;3.10;;;2.07;;
1214;SDS011;597;51.998;5.880;2022-07-04T15:22:46;4.00;;;2.30;;
1214;SDS011;597;51.998;5.880;2022-07-04T15:25:30;4.70;;;1.97;;
1214;SDS011;597;51.998;5.880;2022-07-04T15:27:55;2.37;;;1.70;;
1214;SDS011;597;51.998;5.880;2022-07-04T15:30:20;4.30;;;2.50;;
1214;SDS011;597;51.998;5.880;2022-07-04T15:32:45;4.13;;;2.10;;
1214;SDS011;597;51.998;5.880;2022-07-04T15:35:10;2.40;;;2.13;;
1214;SDS011;597;51.998;5.880;2022-07-04T15:37:36;6.50;;;2.10;;
1214;SDS011;597;51.998;5.880;2022-07-04T15:40:01;3.27;;;2.10;;
1214;SDS011;597;51.998;5.880;2022-07-04T15:42:27;2.33;;;2.03;;
1214;SDS011;597;51.998;5.880;2022-07-04T15:44:53;3.13;;;1.97;;